aviador You're here:

KNUI Decoded Metar

WEBSTER NAVAL in MD, USA
Report Time2018-05-26 14:53:00
UTC Time2018-05-26 15:51:25
Flight Rules vfr VFR
Wind220° at 08 kt
W.Decomp.*RWY 26: 7.0 kt HW 3.9 kt LCW
RWY 15: 1.3 kt HW 7.9 kt RCW
W.Rank220° ranks 16
Current wind is above 220° avg. (7.3)
Visibility9999 m
Phenomena:N/A
Clouds:N/A
Expected CloudBase > 2,400 ft AGL from Temp-Dew spread
CeilingNone
Temp28°C (ISA +13)
Dew Point22°C (70% RH)
Heat Index30.7°C
QNH1013 hPa
Density Alt1,873 ft
Elevation23 ft
Report Wrong Elevation
Raw Report
KNUI 261453Z AUTO 22008KT 9SM CLR 28/22 A2990 RMK AO2 SLP123
T02830217 58000=

Extra information for KNUI:More info

Metar Taf Metar & Taf Last 4 Metars F.Rules Stats Wind Profile Meteogram Temp Stats Airport Information Weather charts Add Link Nearby VenuesMetar ALERT Operation Metar Decoded Social comments

AIRNAV info for KNUI